Time;durP1;ratioP1;P1;durP2;ratioP2;P2;SDS_P1;SDS_P2;PMS_P1;PMS_P2;Temp;Humidity;BMP_temperature;BMP_pressure;BME280_temperature;BME280_humidity;BME280_pressure;Samples;Min_cycle;Max_cycle;Signal;HPM_P1;HPM_P2
2021/12/09 00:01:28;;;;;;;7.78;4.30;;;2.40;99.90;;;;;;4820819;29;20138;-76
2021/12/09 00:03:59;;;;;;;8.43;4.72;;;2.40;99.90;;;;;;4833147;29;20100;-76
2021/12/09 00:06:29;;;;;;;8.48;4.60;;;2.40;99.90;;;;;;4820982;29;20113;-76
2021/12/09 00:09:07;;;;;;;9.43;4.50;;;2.40;99.90;;;;;;4805378;29;20073;-76
2021/12/09 00:11:41;;;;;;;8.45;4.57;;;2.40;99.90;;;;;;4789986;29;20074;-76
2021/12/09 00:14:07;;;;;;;11.82;5.10;;;2.40;99.90;;;;;;4819190;29;20488;-76
2021/12/09 00:16:33;;;;;;;10.02;4.70;;;2.40;99.90;;;;;;4805015;29;20097;-76
2021/12/09 00:19:00;;;;;;;9.30;4.78;;;2.40;99.90;;;;;;4804324;29;20049;-76
2021/12/09 00:21:25;;;;;;;;;;;2.40;99.90;;;;;;4805339;29;20038;-76
2021/12/09 00:23:51;;;;;;;13.20;5.43;;;2.40;99.90;;;;;;4820023;29;20427;-76
2021/12/09 00:26:17;;;;;;;12.55;4.70;;;2.30;99.90;;;;;;4811417;29;20045;-76
2021/12/09 00:28:43;;;;;;;10.43;4.70;;;2.30;99.90;;;;;;4824923;29;20086;-76
2021/12/09 00:31:09;;;;;;;9.93;4.70;;;2.30;99.90;;;;;;4795339;29;20095;-76
2021/12/09 00:33:41;;;;;;;9.02;4.45;;;2.20;99.90;;;;;;4802463;29;20092;-76
2021/12/09 00:36:07;;;;;;;8.52;4.35;;;2.20;99.90;;;;;;4808333;29;20046;-76
2021/12/09 00:38:39;;;;;;;7.85;4.38;;;2.10;99.90;;;;;;4816727;29;20081;-76
2021/12/09 00:41:15;;;;;;;8.10;4.57;;;2.10;99.90;;;;;;4792230;29;20454;-76
2021/12/09 00:43:42;;;;;;;7.60;4.20;;;2.10;99.90;;;;;;4809015;29;20501;-75
2021/12/09 00:46:09;;;;;;;9.27;5.18;;;2.10;99.90;;;;;;4816166;29;20046;-76
2021/12/09 00:48:35;;;;;;;8.82;4.82;;;2.00;99.90;;;;;;4822468;29;20056;-76
2021/12/09 00:51:02;;;;;;;;;;;2.00;99.90;;;;;;4803972;29;20053;-75
2021/12/09 00:53:27;;;;;;;8.23;4.85;;;2.00;99.90;;;;;;4815682;29;19929;-76
2021/12/09 00:55:54;;;;;;;8.35;5.13;;;2.10;99.90;;;;;;4819839;29;20048;-77
2021/12/09 00:58:20;;;;;;;7.78;4.55;;;2.00;99.90;;;;;;4820569;29;20053;-76
2021/12/09 01:00:47;;;;;;;10.05;5.00;;;2.10;99.90;;;;;;4807230;29;20038;-76
2021/12/09 01:03:13;;;;;;;;;;;2.00;99.90;;;;;;4817247;29;20089;-76
2021/12/09 01:05:39;;;;;;;8.60;5.18;;;2.00;99.90;;;;;;4818943;29;20028;-76
2021/12/09 01:08:06;;;;;;;7.88;5.35;;;2.00;99.90;;;;;;4799165;29;20050;-76
2021/12/09 01:10:32;;;;;;;6.68;4.50;;;2.00;99.90;;;;;;4810166;29;20065;-76
2021/12/09 01:12:58;;;;;;;;;;;2.00;99.90;;;;;;4811339;29;20758;-76
2021/12/09 01:15:24;;;;;;;11.27;5.18;;;2.00;99.90;;;;;;4795338;29;19925;-76
2021/12/09 01:17:50;;;;;;;9.95;5.35;;;2.00;99.90;;;;;;4800679;29;20457;-77
2021/12/09 01:20:18;;;;;;;11.38;6.85;;;2.00;99.90;;;;;;4813882;29;20041;-77
2021/12/09 01:22:46;;;;;;;9.00;5.57;;;2.00;99.90;;;;;;4793858;29;20103;-76
2021/12/09 01:25:15;;;;;;;7.68;5.38;;;2.10;99.90;;;;;;4819846;29;20516;-77
2021/12/09 01:27:44;;;;;;;11.43;6.35;;;2.00;99.90;;;;;;4820318;29;20038;-77
2021/12/09 01:30:15;;;;;;;10.02;6.32;;;2.00;99.90;;;;;;4819771;29;20086;-77
2021/12/09 01:32:48;;;;;;;10.82;6.00;;;2.00;99.90;;;;;;4800212;29;20385;-77
2021/12/09 01:35:14;;;;;;;11.90;7.57;;;2.00;99.90;;;;;;4806615;29;20472;-77
2021/12/09 01:37:40;;;;;;;9.98;5.90;;;2.00;99.90;;;;;;4823075;29;20057;-76
2021/12/09 01:40:08;;;;;;;11.25;5.65;;;2.00;99.90;;;;;;4806782;29;20090;-76
2021/12/09 01:42:34;;;;;;;11.85;6.68;;;2.00;99.90;;;;;;4798570;29;20047;-76
2021/12/09 01:45:00;;;;;;;12.13;6.68;;;2.00;99.90;;;;;;4808086;29;20054;-77
2021/12/09 01:47:25;;;;;;;8.75;6.07;;;2.00;99.90;;;;;;4816629;29;20074;-76
2021/12/09 01:49:51;;;;;;;12.00;6.90;;;2.00;99.90;;;;;;4811836;29;20128;-76
2021/12/09 01:52:17;;;;;;;8.85;6.10;;;2.00;99.90;;;;;;4813322;29;20417;-76
2021/12/09 01:54:42;;;;;;;8.27;5.85;;;2.00;99.90;;;;;;4812817;29;20055;-76
2021/12/09 01:57:09;;;;;;;8.37;6.10;;;2.00;99.90;;;;;;4784815;29;20148;-76
2021/12/09 01:59:35;;;;;;;;;;;1.90;99.90;;;;;;4801606;29;20726;-76
2021/12/09 02:02:00;;;;;;;12.05;6.95;;;2.00;99.90;;;;;;4803868;29;20003;-76
2021/12/09 02:04:26;;;;;;;11.80;6.68;;;1.90;99.90;;;;;;4822621;29;20054;-75
2021/12/09 02:06:53;;;;;;;9.40;5.85;;;1.90;99.90;;;;;;4822594;29;20081;-76
2021/12/09 02:09:19;;;;;;;7.85;5.63;;;1.90;99.90;;;;;;4818462;29;20042;-77
2021/12/09 02:11:45;;;;;;;;;;;1.80;99.90;;;;;;4818162;29;20072;-77
2021/12/09 02:14:12;;;;;;;10.18;6.30;;;1.90;99.90;;;;;;4811228;29;19932;-77
2021/12/09 02:16:38;;;;;;;;;;;1.90;99.90;;;;;;4800082;29;20138;-77
2021/12/09 02:19:05;;;;;;;8.95;6.63;;;1.80;99.90;;;;;;4816579;29;19969;-77
2021/12/09 02:21:34;;;;;;;12.10;6.65;;;1.90;99.90;;;;;;4822041;29;20042;-76
2021/12/09 02:24:03;;;;;;;11.55;7.57;;;1.80;99.90;;;;;;4813610;29;20050;-77
2021/12/09 02:26:36;;;;;;;9.85;6.30;;;1.80;99.90;;;;;;4799923;29;20131;-76
2021/12/09 02:29:05;;;;;;;10.32;6.93;;;1.80;99.90;;;;;;4818053;29;20416;-77
2021/12/09 02:31:32;;;;;;;11.68;6.25;;;1.80;99.90;;;;;;4822463;29;20069;-76
2021/12/09 02:33:58;;;;;;;9.88;6.07;;;1.80;99.90;;;;;;4804753;29;20166;-76
2021/12/09 02:36:24;;;;;;;12.70;6.70;;;1.80;99.90;;;;;;4821975;29;20063;-74
2021/12/09 02:38:50;;;;;;;13.65;6.90;;;1.70;99.90;;;;;;4817049;29;20038;-74
2021/12/09 02:41:20;;;;;;;12.88;6.90;;;1.70;99.90;;;;;;4822046;29;20042;-74
2021/12/09 02:43:56;;;;;;;11.30;7.30;;;1.70;99.90;;;;;;4821131;29;20069;-75
2021/12/09 02:46:24;;;;;;;14.48;7.13;;;1.70;99.90;;;;;;4821840;29;20065;-75
2021/12/09 02:48:50;;;;;;;10.40;6.57;;;1.70;99.90;;;;;;4821113;29;20050;-75
2021/12/09 02:51:16;;;;;;;9.77;6.85;;;1.70;99.90;;;;;;4806663;29;20094;-75
2021/12/09 02:53:42;;;;;;;13.82;8.10;;;1.60;99.90;;;;;;4806356;29;20052;-75
2021/12/09 02:56:08;;;;;;;13.43;7.45;;;1.70;99.90;;;;;;4821819;29;20050;-75
2021/12/09 02:58:34;;;;;;;14.32;7.20;;;1.70;99.90;;;;;;4821469;29;20039;-75
2021/12/09 03:01:19;;;;;;;11.35;7.18;;;1.70;99.90;;;;;;4795967;29;20782;-75
2021/12/09 03:03:52;;;;;;;9.82;6.43;;;1.70;99.90;;;;;;4815920;29;20389;-75
2021/12/09 03:06:21;;;;;;;9.98;6.25;;;1.60;99.90;;;;;;4796643;29;20184;-75
2021/12/09 03:08:47;;;;;;;10.63;7.18;;;1.60;99.90;;;;;;4796592;29;20046;-75
2021/12/09 03:11:15;;;;;;;;;;;1.60;99.90;;;;;;4807762;29;20061;-75
2021/12/09 03:13:42;;;;;;;12.73;7.60;;;1.60;99.90;;;;;;4805155;29;19928;-75
2021/12/09 03:16:09;;;;;;;11.93;7.10;;;1.60;99.90;;;;;;4805280;29;20500;-75
2021/12/09 03:18:57;;;;;;;11.02;7.05;;;1.50;99.90;;;;;;4805421;29;20091;-75
2021/12/09 03:21:30;;;;;;;9.52;6.72;;;1.50;99.90;;;;;;4820602;29;20054;-75
2021/12/09 03:23:56;;;;;;;10.80;6.72;;;1.60;99.90;;;;;;4817834;29;20090;-75
2021/12/09 03:26:29;;;;;;;12.57;7.22;;;1.50;99.90;;;;;;4818728;29;20540;-75
2021/12/09 03:28:57;;;;;;;14.68;7.22;;;1.50;99.90;;;;;;4817640;29;20077;-75
2021/12/09 03:31:23;;;;;;;11.70;6.63;;;1.50;99.90;;;;;;4820693;29;20054;-75
2021/12/09 03:33:49;;;;;;;12.38;6.43;;;1.40;99.90;;;;;;4820672;29;20096;-75
2021/12/09 03:36:14;;;;;;;10.75;6.65;;;1.40;99.90;;;;;;4820459;29;20046;-75
2021/12/09 03:38:41;;;;;;;11.80;7.30;;;1.40;99.90;;;;;;4808918;29;20046;-75
2021/12/09 03:41:07;;;;;;;13.93;8.43;;;1.40;99.90;;;;;;4823389;29;20050;-75
2021/12/09 03:43:33;;;;;;;10.10;6.60;;;1.40;99.90;;;;;;4820014;29;20822;-75
2021/12/09 03:45:59;;;;;;;12.25;7.45;;;1.40;99.90;;;;;;4793949;29;20094;-76
2021/12/09 03:48:27;;;;;;;12.80;7.65;;;1.40;99.90;;;;;;4807885;29;20049;-76
2021/12/09 03:50:53;;;;;;;10.35;7.03;;;1.40;99.90;;;;;;4810941;29;20105;-75
2021/12/09 03:53:20;;;;;;;14.18;8.05;;;1.30;99.90;;;;;;4806678;29;20446;-76
2021/12/09 03:55:46;;;;;;;14.20;7.88;;;1.40;99.90;;;;;;4807961;29;20681;-76
2021/12/09 03:58:12;;;;;;;11.02;7.10;;;1.40;99.90;;;;;;4818099;29;20432;-75
2021/12/09 04:00:38;;;;;;;14.07;7.35;;;1.40;99.90;;;;;;4803008;29;20034;-75
2021/12/09 04:03:06;;;;;;;13.07;7.22;;;1.30;99.90;;;;;;4816285;29;20049;-76
2021/12/09 04:05:31;;;;;;;11.05;7.03;;;1.30;99.90;;;;;;4820710;29;20457;-75
2021/12/09 04:07:58;;;;;;;13.73;8.10;;;1.30;99.90;;;;;;4815379;29;20073;-75
2021/12/09 04:10:23;;;;;;;;;;;1.30;99.90;;;;;;4802463;29;20373;-76
2021/12/09 04:12:49;;;;;;;12.02;7.50;;;1.30;99.90;;;;;;4802826;29;19981;-75
2021/12/09 04:15:15;;;;;;;13.38;7.00;;;1.30;99.90;;;;;;4804496;29;20054;-75
2021/12/09 04:17:41;;;;;;;13.45;8.30;;;1.30;99.90;;;;;;4820150;29;20543;-75
2021/12/09 04:20:09;;;;;;;8.50;6.40;;;1.30;99.90;;;;;;4809777;29;20053;-76
2021/12/09 04:22:35;;;;;;;10.93;6.88;;;1.30;99.90;;;;;;4813074;29;20058;-75
2021/12/09 04:25:01;;;;;;;13.82;6.85;;;1.30;99.90;;;;;;4818868;29;20420;-76
2021/12/09 04:27:27;;;;;;;9.27;6.28;;;1.20;99.90;;;;;;4818464;29;20129;-76
2021/12/09 04:29:53;;;;;;;12.47;7.50;;;1.20;99.90;;;;;;4816071;29;20153;-75
2021/12/09 04:32:19;;;;;;;10.68;6.47;;;1.20;99.90;;;;;;4820398;29;20315;-75
2021/12/09 04:34:46;;;;;;;14.02;7.13;;;1.20;99.90;;;;;;4820313;29;20048;-75
2021/12/09 04:37:12;;;;;;;12.82;7.90;;;1.20;99.90;;;;;;4820318;29;20138;-75
2021/12/09 04:39:38;;;;;;;11.85;6.88;;;1.20;99.90;;;;;;4814254;29;20039;-75
2021/12/09 04:42:05;;;;;;;10.65;6.57;;;1.20;99.90;;;;;;4810131;29;20046;-75
2021/12/09 04:44:31;;;;;;;11.52;7.72;;;1.20;99.90;;;;;;4802164;29;20137;-75
2021/12/09 04:47:00;;;;;;;12.25;7.22;;;1.20;99.90;;;;;;4816537;29;20058;-75
2021/12/09 04:49:27;;;;;;;13.95;7.95;;;1.20;99.90;;;;;;4803565;29;20072;-75
2021/12/09 04:51:53;;;;;;;13.60;8.88;;;1.10;99.90;;;;;;4819781;29;20133;-75
2021/12/09 04:54:19;;;;;;;10.77;7.78;;;1.20;99.90;;;;;;4820061;29;20201;-75
2021/12/09 04:56:45;;;;;;;13.07;7.38;;;1.20;99.90;;;;;;4812389;29;20057;-75
2021/12/09 04:59:11;;;;;;;11.13;7.60;;;1.20;99.90;;;;;;4815265;29;20058;-75
2021/12/09 05:01:37;;;;;;;12.75;7.97;;;1.10;99.90;;;;;;4820644;29;20042;-75
2021/12/09 05:04:03;;;;;;;11.73;8.70;;;1.10;99.90;;;;;;4816499;29;20126;-75
2021/12/09 05:06:29;;;;;;;;;;;1.10;99.90;;;;;;4807153;29;20065;-75
2021/12/09 05:08:56;;;;;;;14.10;7.95;;;1.10;99.90;;;;;;4809753;29;19921;-74
2021/12/09 05:13:54;;;;;;;15.00;8.60;;;1.10;99.90;;;;;;4821730;29;20104;-75
2021/12/09 05:16:20;;;;;;;13.32;8.60;;;1.10;99.90;;;;;;4822600;29;20141;-75
2021/12/09 05:18:48;;;;;;;14.15;7.95;;;1.10;99.90;;;;;;4807939;29;20137;-75
2021/12/09 05:21:15;;;;;;;13.20;7.40;;;1.00;99.90;;;;;;4810533;29;20489;-75
2021/12/09 05:23:42;;;;;;;12.27;7.30;;;1.00;99.90;;;;;;4827994;29;20535;-75
2021/12/09 05:26:09;;;;;;;12.55;7.20;;;1.00;99.90;;;;;;4827492;29;20105;-75
2021/12/09 05:28:36;;;;;;;11.98;7.68;;;1.00;99.90;;;;;;4822435;29;20492;-75
2021/12/09 05:33:49;;;;;;;12.90;8.32;;;1.00;99.90;;;;;;4819240;29;20118;-75
2021/12/09 05:36:15;;;;;;;15.50;8.23;;;0.90;99.90;;;;;;4819468;29;20447;-76
2021/12/09 05:38:41;;;;;;;11.20;7.45;;;1.00;99.90;;;;;;4792717;29;20049;-76
2021/12/09 05:41:08;;;;;;;14.80;7.70;;;1.00;99.90;;;;;;4815692;29;20126;-75
2021/12/09 05:43:34;;;;;;;14.70;8.73;;;0.90;99.90;;;;;;4825614;29;20808;-73
2021/12/09 05:46:00;;;;;;;15.27;8.88;;;0.90;99.90;;;;;;4811198;29;20051;-75
2021/12/09 05:48:26;;;;;;;12.63;8.02;;;1.00;99.90;;;;;;4808906;29;20474;-74
2021/12/09 05:50:52;;;;;;;15.07;9.50;;;1.00;99.90;;;;;;4822902;29;20042;-74
2021/12/09 05:53:18;;;;;;;13.82;8.65;;;0.90;99.90;;;;;;4798661;29;20312;-74
2021/12/09 05:55:44;;;;;;;13.25;7.72;;;0.90;99.90;;;;;;4806587;29;20039;-74
2021/12/09 05:58:13;;;;;;;11.60;8.35;;;1.00;99.90;;;;;;4814704;29;20046;-74
2021/12/09 06:00:39;;;;;;;14.65;8.48;;;1.00;99.90;;;;;;4827817;29;20045;-74
2021/12/09 06:03:05;;;;;;;11.18;8.13;;;1.00;99.90;;;;;;4810539;29;20050;-75
2021/12/09 06:05:31;;;;;;;12.80;8.40;;;0.90;99.90;;;;;;4801190;29;20062;-75
2021/12/09 06:07:57;;;;;;;13.43;8.18;;;0.90;99.90;;;;;;4804685;29;20551;-75
2021/12/09 06:10:23;;;;;;;15.25;8.57;;;0.90;99.90;;;;;;4822091;29;20137;-73
2021/12/09 06:12:48;;;;;;;10.25;6.63;;;0.90;99.90;;;;;;4820852;29;20073;-74
2021/12/09 06:15:14;;;;;;;11.40;8.32;;;0.80;99.90;;;;;;4791676;29;20046;-76
2021/12/09 06:17:40;;;;;;;14.93;8.43;;;0.80;99.90;;;;;;4803480;29;20054;-74
2021/12/09 06:20:07;;;;;;;13.02;8.30;;;0.80;99.90;;;;;;4805816;29;20058;-74
2021/12/09 06:22:32;;;;;;;;;;;0.70;99.90;;;;;;4806454;29;20397;-74
2021/12/09 06:24:58;;;;;;;12.27;8.15;;;0.70;99.90;;;;;;4801757;29;19937;-72
2021/12/09 06:27:24;;;;;;;16.38;8.57;;;0.70;99.90;;;;;;4808088;29;20050;-74
2021/12/09 06:29:49;;;;;;;14.98;8.25;;;0.70;99.90;;;;;;4821082;29;20103;-73
2021/12/09 06:32:15;;;;;;;12.95;7.65;;;0.70;99.90;;;;;;4821645;29;20106;-73
2021/12/09 06:34:41;;;;;;;11.10;7.43;;;0.70;99.90;;;;;;4824761;29;20389;-74
2021/12/09 06:37:07;;;;;;;14.88;7.85;;;0.70;99.90;;;;;;4821369;29;20315;-74
2021/12/09 06:39:32;;;;;;;13.73;8.48;;;0.60;99.90;;;;;;4812054;29;20042;-74
2021/12/09 06:41:58;;;;;;;11.55;7.45;;;0.70;99.90;;;;;;4821929;29;20476;-74
2021/12/09 06:44:24;;;;;;;12.47;8.30;;;0.60;99.90;;;;;;4824229;29;20054;-74
2021/12/09 06:46:50;;;;;;;10.32;7.25;;;0.60;99.90;;;;;;4812452;29;20296;-74
2021/12/09 06:49:15;;;;;;;14.07;7.63;;;0.60;99.90;;;;;;4819252;29;20145;-73
2021/12/09 06:51:41;;;;;;;10.70;7.20;;;0.60;99.90;;;;;;4817238;29;20050;-73
2021/12/09 06:54:07;;;;;;;11.23;6.60;;;0.50;99.90;;;;;;4791520;29;20512;-73
2021/12/09 06:56:32;;;;;;;11.73;7.85;;;0.50;99.90;;;;;;4821153;29;20038;-73
2021/12/09 06:58:59;;;;;;;12.32;7.80;;;0.60;99.90;;;;;;4819984;29;20050;-85
2021/12/09 07:01:26;;;;;;;11.15;6.78;;;0.60;99.90;;;;;;4829435;29;20046;-74
2021/12/09 07:03:53;;;;;;;;;;;0.50;99.90;;;;;;4821978;29;20050;-73
2021/12/09 07:06:18;;;;;;;12.30;6.97;;;0.50;99.90;;;;;;4806338;29;20275;-73
2021/12/09 07:08:45;;;;;;;11.95;8.38;;;0.50;99.90;;;;;;4820811;29;20075;-73
2021/12/09 07:11:12;;;;;;;14.68;8.48;;;0.50;99.90;;;;;;4824039;29;20135;-73
2021/12/09 07:13:38;;;;;;;11.30;7.70;;;0.50;99.90;;;;;;4833613;29;20098;-73
2021/12/09 07:16:04;;;;;;;16.73;9.55;;;0.50;99.90;;;;;;4801222;29;20080;-73
2021/12/09 07:18:30;;;;;;;13.45;8.57;;;0.50;99.90;;;;;;4828493;29;20057;-73
2021/12/09 07:20:56;;;;;;;13.57;8.70;;;0.60;99.90;;;;;;4824766;29;20517;-73
2021/12/09 07:23:22;;;;;;;14.20;8.95;;;0.60;99.90;;;;;;4804454;29;20077;-73
2021/12/09 07:25:48;;;;;;;13.32;8.27;;;0.50;99.90;;;;;;4806935;29;20086;-73
2021/12/09 07:28:15;;;;;;;13.38;8.52;;;0.60;99.90;;;;;;4808570;29;20079;-76
2021/12/09 07:30:41;;;;;;;13.82;7.47;;;0.50;99.90;;;;;;4822752;29;20051;-73
2021/12/09 07:33:06;;;;;;;14.02;8.25;;;0.50;99.90;;;;;;4805331;29;20038;-73
2021/12/09 07:35:32;;;;;;;12.00;7.60;;;0.50;99.90;;;;;;4822945;29;20053;-73
2021/12/09 07:38:02;;;;;;;14.52;7.25;;;0.50;99.90;;;;;;4825934;29;20038;-72
2021/12/09 07:40:27;;;;;;;17.60;9.27;;;0.50;99.90;;;;;;4811859;29;20129;-72
2021/12/09 07:42:53;;;;;;;12.73;7.93;;;0.60;99.90;;;;;;4830115;29;20186;-74
2021/12/09 07:45:20;;;;;;;12.30;7.82;;;0.60;99.90;;;;;;4802915;29;20103;-74
2021/12/09 07:47:46;;;;;;;14.40;8.98;;;0.60;99.90;;;;;;4827784;29;20062;-74
2021/12/09 07:50:16;;;;;;;10.75;6.55;;;0.60;99.90;;;;;;4822822;29;20095;-76
2021/12/09 07:52:43;;;;;;;12.38;7.30;;;0.60;99.90;;;;;;4806925;29;20046;-77
2021/12/09 07:55:11;;;;;;;14.93;8.73;;;0.60;99.90;;;;;;4810949;29;20042;-77
2021/12/09 07:57:38;;;;;;;12.18;7.00;;;0.60;99.90;;;;;;4813230;29;20402;-76
2021/12/09 08:00:18;;;;;;;10.13;6.30;;;0.60;99.90;;;;;;4822888;29;20049;-76
2021/12/09 08:02:45;;;;;;;12.23;7.60;;;0.60;99.90;;;;;;4816748;29;20053;-77
2021/12/09 08:05:12;;;;;;;15.07;7.97;;;0.60;99.90;;;;;;4820031;29;20050;-78
2021/12/09 08:07:41;;;;;;;13.73;6.63;;;0.60;99.90;;;;;;4804731;29;20388;-78
2021/12/09 08:10:09;;;;;;;14.18;7.22;;;0.50;99.90;;;;;;4819860;29;20049;-78
2021/12/09 08:12:35;;;;;;;13.85;8.20;;;0.60;99.90;;;;;;4817578;29;20057;-78
2021/12/09 08:15:01;;;;;;;13.85;8.23;;;0.60;99.90;;;;;;4816187;29;20138;-78
2021/12/09 08:20:14;;;;;;;14.40;8.52;;;0.60;99.90;;;;;;4817684;29;20039;-78
2021/12/09 08:22:41;;;;;;;13.27;8.35;;;0.70;99.90;;;;;;4819829;29;20042;-78
2021/12/09 08:25:09;;;;;;;14.95;9.23;;;0.60;99.90;;;;;;4804721;29;20042;-78
2021/12/09 08:27:36;;;;;;;13.15;7.90;;;0.60;99.90;;;;;;4835973;29;20053;-78
2021/12/09 08:30:06;;;;;;;11.45;8.27;;;0.70;99.90;;;;;;4826781;29;20121;-78
2021/12/09 08:32:35;;;;;;;14.85;8.32;;;0.70;99.90;;;;;;4821570;29;20047;-78
2021/12/09 08:35:01;;;;;;;15.02;8.32;;;0.70;99.90;;;;;;4818891;29;20094;-78
2021/12/09 08:37:27;;;;;;;11.77;7.63;;;0.70;99.90;;;;;;4817592;29;20047;-78
2021/12/09 08:39:53;;;;;;;11.13;6.78;;;0.70;99.90;;;;;;4816449;29;20076;-78
2021/12/09 08:42:19;;;;;;;10.32;6.85;;;0.70;99.90;;;;;;4819992;29;20078;-78
2021/12/09 08:44:44;;;;;;;12.10;7.53;;;0.80;99.90;;;;;;4818354;29;20108;-78
2021/12/09 08:47:10;;;;;;;16.63;8.73;;;0.80;99.90;;;;;;4817299;29;20085;-79
2021/12/09 08:49:36;;;;;;;12.52;7.85;;;0.90;99.90;;;;;;4830274;29;20297;-78
2021/12/09 08:52:04;;;;;;;15.02;9.57;;;0.90;99.90;;;;;;4816946;29;20484;-78
2021/12/09 08:54:30;;;;;;;15.82;9.57;;;1.00;99.90;;;;;;4817042;29;20046;-78
2021/12/09 08:56:57;;;;;;;13.50;8.30;;;1.00;99.90;;;;;;4817409;29;20085;-79
2021/12/09 08:59:24;;;;;;;15.52;9.02;;;1.10;99.90;;;;;;4799293;29;20046;-79
2021/12/09 09:01:51;;;;;;;16.27;8.68;;;1.20;99.90;;;;;;4817354;29;20042;-79
2021/12/09 09:04:18;;;;;;;13.15;8.80;;;1.20;99.90;;;;;;4804677;29;20042;-79
2021/12/09 09:06:50;;;;;;;;;;;1.20;99.90;;;;;;4821664;29;20245;-79
2021/12/09 09:09:16;;;;;;;15.50;8.43;;;1.30;99.90;;;;;;4824109;29;20012;-79
2021/12/09 09:11:42;;;;;;;12.40;7.53;;;1.30;99.90;;;;;;4818066;29;20046;-78
2021/12/09 09:14:07;;;;;;;16.98;8.27;;;1.30;99.90;;;;;;4829085;29;20136;-78
2021/12/09 09:16:33;;;;;;;15.13;8.10;;;1.40;99.90;;;;;;4824073;29;20052;-78
2021/12/09 09:18:59;;;;;;;11.43;7.13;;;1.40;99.90;;;;;;4808161;29;20035;-78
2021/12/09 09:21:25;;;;;;;13.15;7.57;;;1.40;99.90;;;;;;4820445;29;20469;-80
2021/12/09 09:23:51;;;;;;;13.52;8.00;;;1.50;99.90;;;;;;4823152;29;20111;-79
2021/12/09 09:26:17;;;;;;;15.98;7.80;;;1.50;99.90;;;;;;4820109;29;20523;-79
2021/12/09 09:28:44;;;;;;;15.20;8.07;;;1.60;99.90;;;;;;4826052;29;20054;-79
2021/12/09 09:31:10;;;;;;;14.73;8.00;;;1.60;99.90;;;;;;4822716;29;20526;-80
2021/12/09 09:33:36;;;;;;;15.27;8.00;;;1.60;99.90;;;;;;4838487;29;20061;-79
2021/12/09 09:36:02;;;;;;;13.35;7.85;;;1.70;99.90;;;;;;4805924;29;20039;-80
2021/12/09 09:38:28;;;;;;;12.60;7.65;;;1.80;99.90;;;;;;4809658;29;20043;-80
2021/12/09 09:41:08;;;;;;;14.40;7.65;;;1.80;99.90;;;;;;4813645;29;20054;-80
2021/12/09 09:46:16;;;;;;;17.55;8.02;;;1.80;99.90;;;;;;4815176;29;20054;-80
2021/12/09 09:48:44;;;;;;;15.25;7.90;;;1.90;99.90;;;;;;4809358;29;20162;-80
2021/12/09 09:51:10;;;;;;;15.10;7.70;;;1.90;99.90;;;;;;4819248;29;20692;-80
2021/12/09 09:53:38;;;;;;;17.50;8.35;;;1.90;99.90;;;;;;4820880;29;20133;-80
2021/12/09 09:56:13;;;;;;;15.00;7.78;;;2.00;99.90;;;;;;4804219;29;20053;-80
2021/12/09 09:59:05;;;;;;;16.85;9.25;;;2.00;99.90;;;;;;4820889;29;20054;-80
2021/12/09 10:01:34;;;;;;;13.13;7.05;;;2.10;99.90;;;;;;4835448;29;20051;-80
2021/12/09 10:04:20;;;;;;;11.43;7.53;;;2.10;99.90;;;;;;4836861;29;20458;-80
2021/12/09 10:06:47;;;;;;;15.00;8.13;;;2.10;99.90;;;;;;4823723;29;20061;-79
2021/12/09 10:09:16;;;;;;;16.35;7.63;;;2.10;99.90;;;;;;4829908;29;20053;-81
2021/12/09 10:11:42;;;;;;;11.43;7.15;;;2.20;99.90;;;;;;4837621;29;20043;-81
2021/12/09 10:14:20;;;;;;;11.85;7.13;;;2.20;99.90;;;;;;4820925;29;20153;-81
2021/12/09 10:17:00;;;;;;;10.93;6.72;;;2.20;99.90;;;;;;4817735;29;20078;-81
2021/12/09 10:19:25;;;;;;;17.55;8.25;;;2.30;99.90;;;;;;4821965;29;20557;-81
2021/12/09 10:22:06;;;;;;;11.80;7.27;;;2.30;99.90;;;;;;4820767;29;20047;-82
2021/12/09 10:24:33;;;;;;;15.35;7.45;;;2.40;99.90;;;;;;4834206;29;20284;-82
2021/12/09 10:26:59;;;;;;;12.45;7.32;;;2.50;99.90;;;;;;4820142;29;20119;-82
2021/12/09 10:29:34;;;;;;;16.33;7.85;;;2.50;99.90;;;;;;4820602;29;20054;-83
2021/12/09 10:32:05;;;;;;;12.65;7.30;;;2.60;99.90;;;;;;4833372;29;20053;-82
2021/12/09 10:34:50;;;;;;;10.50;6.35;;;2.60;99.90;;;;;;4823704;29;20047;-83
2021/12/09 10:37:16;;;;;;;14.05;7.15;;;2.70;99.90;;;;;;4815360;29;20415;-83
2021/12/09 10:39:47;;;;;;;14.48;7.60;;;2.80;99.90;;;;;;4805108;29;20043;-83
2021/12/09 10:42:22;;;;;;;14.38;6.80;;;2.90;99.90;;;;;;4822446;29;20058;-83
2021/12/09 10:45:00;;;;;;;13.23;6.45;;;3.00;99.90;;;;;;4835799;29;20487;-83
2021/12/09 10:50:42;;;;;;;14.90;6.60;;;3.00;99.90;;;;;;4826211;29;20176;-83
2021/12/09 10:56:10;;;;;;;12.70;7.28;;;3.00;99.90;;;;;;4816299;29;20042;-83
2021/12/09 10:58:42;;;;;;;12.02;6.93;;;3.10;99.90;;;;;;4819996;29;20463;-82
2021/12/09 11:01:08;;;;;;;14.50;6.88;;;3.10;99.90;;;;;;4821177;29;20049;-83
2021/12/09 11:03:33;;;;;;;17.03;6.90;;;3.10;99.90;;;;;;4838122;29;20054;-81
2021/12/09 11:06:06;;;;;;;13.50;7.57;;;3.10;99.90;;;;;;4820618;29;20050;-81
2021/12/09 11:08:44;;;;;;;15.93;7.85;;;3.00;99.90;;;;;;4820034;29;20299;-82
2021/12/09 11:11:30;;;;;;;16.70;7.68;;;3.00;99.90;;;;;;4820927;29;20062;-81
2021/12/09 11:14:00;;;;;;;18.92;8.27;;;3.00;99.90;;;;;;4837933;29;20066;-81
2021/12/09 11:16:36;;;;;;;15.05;8.20;;;3.00;99.90;;;;;;4822851;29;20046;-82
2021/12/09 11:22:00;;;;;;;17.17;8.05;;;3.00;99.90;;;;;;4810205;29;20500;-82
2021/12/09 11:24:31;;;;;;;15.23;7.68;;;3.00;99.90;;;;;;4819530;29;20051;-82
2021/12/09 11:27:03;;;;;;;16.75;8.25;;;2.90;99.90;;;;;;4795627;29;20477;-82
2021/12/09 11:29:36;;;;;;;12.82;7.70;;;2.90;99.90;;;;;;4834883;29;20041;-82
2021/12/09 11:32:19;;;;;;;15.65;7.80;;;2.90;99.90;;;;;;4804274;29;20049;-82
2021/12/09 11:35:09;;;;;;;9.68;6.93;;;2.80;99.90;;;;;;4832457;29;20038;-82
2021/12/09 11:37:40;;;;;;;15.48;7.75;;;2.80;99.90;;;;;;4797830;29;20162;-82
2021/12/09 11:40:20;;;;;;;16.13;7.75;;;2.80;99.90;;;;;;4836302;29;20053;-82
2021/12/09 11:42:54;;;;;;;14.52;7.68;;;2.80;99.90;;;;;;4819683;29;20134;-81
2021/12/09 11:45:24;;;;;;;13.93;7.45;;;2.80;99.90;;;;;;4821204;29;20057;-81
2021/12/09 11:47:52;;;;;;;14.57;7.63;;;2.80;99.90;;;;;;4822830;29;20565;-81
2021/12/09 11:50:23;;;;;;;16.10;8.43;;;2.80;99.90;;;;;;4822211;29;20167;-82
2021/12/09 11:52:52;;;;;;;16.00;7.80;;;2.80;99.90;;;;;;4810937;29;20049;-82
2021/12/09 11:55:21;;;;;;;13.85;7.20;;;2.80;99.90;;;;;;4814318;29;20523;-82
2021/12/09 11:57:54;;;;;;;15.45;8.50;;;2.80;99.90;;;;;;4792719;29;20073;-83
2021/12/09 12:12:54;;;;;;;15.93;8.07;;;2.80;99.90;;;;;;4813758;29;20141;-82
2021/12/09 12:15:57;;;;;;;16.67;7.95;;;2.90;99.90;;;;;;4803784;29;20133;-82
2021/12/09 12:20:43;;;;;;;17.37;8.50;;;2.90;99.90;;;;;;4833517;29;20054;-82
2021/12/09 12:45:36;;;;;;;15.80;7.63;;;3.10;99.90;;;;;;4803557;29;20183;-83
2021/12/09 12:53:56;;;;;;;16.55;8.10;;;3.10;99.90;;;;;;4815702;29;20086;-82
2021/12/09 12:56:31;;;;;;;13.75;7.70;;;3.10;99.90;;;;;;4818510;29;20049;-82
2021/12/09 12:59:11;;;;;;;14.52;7.53;;;3.10;99.90;;;;;;4819843;29;20047;-83
2021/12/09 13:01:51;;;;;;;16.15;8.15;;;3.20;99.90;;;;;;4833756;29;20049;-83
2021/12/09 13:04:29;;;;;;;16.70;8.80;;;3.20;99.90;;;;;;4826429;29;20046;-82
2021/12/09 13:07:02;;;;;;;12.75;7.25;;;3.20;99.90;;;;;;4839707;29;20051;-82
2021/12/09 13:09:41;;;;;;;15.93;8.98;;;3.20;99.90;;;;;;4824168;29;20049;-82
2021/12/09 13:12:10;;;;;;;13.43;7.80;;;3.20;99.90;;;;;;4809417;29;20055;-82
2021/12/09 13:15:20;;;;;;;15.40;8.70;;;3.20;99.90;;;;;;4825335;29;20046;-82
2021/12/09 13:17:57;;;;;;;16.63;8.32;;;3.30;99.90;;;;;;4826634;29;20370;-81
2021/12/09 13:20:33;;;;;;;16.40;8.93;;;3.30;99.90;;;;;;4832067;29;20054;-82
2021/12/09 13:23:27;;;;;;;17.77;8.90;;;3.30;99.90;;;;;;4824795;29;20587;-82
2021/12/09 13:26:13;;;;;;;15.55;9.00;;;3.30;99.90;;;;;;4824013;29;20054;-82
2021/12/09 13:28:59;;;;;;;16.80;8.70;;;3.30;99.90;;;;;;4812792;29;20050;-82
2021/12/09 13:31:50;;;;;;;16.48;9.05;;;3.30;99.90;;;;;;4807432;29;20042;-81
2021/12/09 13:34:34;;;;;;;15.95;8.63;;;3.40;99.90;;;;;;4821477;29;20061;-81
2021/12/09 13:37:32;;;;;;;14.55;10.05;;;3.40;99.90;;;;;;4813197;29;20050;-82
2021/12/09 13:48:24;;;;;;;17.35;9.05;;;3.40;99.90;;;;;;4848388;29;20542;-82
2021/12/09 13:50:57;;;;;;;18.92;10.70;;;3.40;99.90;;;;;;4839381;29;20424;-82
2021/12/09 13:56:10;;;;;;;17.58;8.60;;;3.40;99.90;;;;;;4824844;29;20051;-82
2021/12/09 13:58:36;;;;;;;18.92;9.65;;;3.40;99.90;;;;;;4835359;29;20575;-83
2021/12/09 14:01:04;;;;;;;18.02;9.43;;;3.40;99.90;;;;;;4821144;29;20125;-83
2021/12/09 14:03:29;;;;;;;15.98;9.38;;;3.40;99.90;;;;;;4822088;29;20046;-83
2021/12/09 14:06:09;;;;;;;21.73;10.25;;;3.40;99.90;;;;;;4806753;29;20047;-83
2021/12/09 14:08:51;;;;;;;18.13;9.63;;;3.40;99.90;;;;;;4827342;29;20434;-82
2021/12/09 14:11:31;;;;;;;18.05;9.23;;;3.40;99.90;;;;;;4816304;29;20438;-83
2021/12/09 14:14:09;;;;;;;17.17;9.25;;;3.40;99.90;;;;;;4820866;29;20129;-82
2021/12/09 14:21:52;;;;;;;21.05;9.73;;;3.40;99.90;;;;;;4820966;29;20047;-82